Hlavní strana
METAR-TAF:

METAR-TAF

Letiště :

LaGrange-Callaway Airport

LaGrange, Georgie, Spojené státy americké

zeměpisná šířka: 33-00-32N, zeměpisná délka: 085-04-21W, výška: 211 m

Aktuální stav počasí

Zpráva byla vytvořena před 33 minutami, v 01:55 UTC
Jižní vítr 5 kt
Teplota 14°C
Vlhkost vzduchu 100%
Tlak 1020 hPa
Viditelnost: 16.1 km
Polojasno ve výšce 4400 ft
Oblačno až skoro zataženo ve výšce 5000 ft
Zataženo ve výšce 7000 ft

METAR: KLGC 190155Z AUTO 19005KT 10SM SCT044 BKN050 OVC070 14/14 A3012 RMK AO2 T01400135

Čas: 21:28 (02:28 UTC)


TAF: chybějící

Stav a předpovědi počasí z více než 4 000 letišť (zprávy METAR a TAF).

Červené a žluté tečky na mapě představují dostupné meteorologické stanice.

Když kurzor umístíte na tečku, zobrazí se název stanice.

Pak kliknutím zobrazíte stav a předpověď počasí.

Chcete-li změnit mapu, kliknutím na zelené tlačítko se znaménkem +mapu přiblížíte, kliknutím na zelené tlačítko se znaménkem – mapu oddálíte a kliknutím na zelené šipky přejdete na sousední mapy.


METAR-TAF: